createdAt,value
2023-11-21T00:01:45.795Z,1.80
2023-11-21T00:04:49.187Z,2.00
2023-11-21T00:07:50.938Z,1.90
2023-11-21T00:10:52.853Z,2.05
2023-11-21T00:13:54.651Z,1.90
2023-11-21T00:16:56.453Z,1.80
2023-11-21T00:19:59.568Z,1.98
2023-11-21T00:23:01.427Z,1.65
2023-11-21T00:26:03.129Z,1.58
2023-11-21T00:29:04.935Z,2.22
2023-11-21T00:32:07.552Z,1.92
2023-11-21T00:35:10.988Z,1.48
2023-11-21T00:38:12.712Z,1.95
2023-11-21T00:41:14.440Z,2.05
2023-11-21T00:44:16.226Z,1.77
2023-11-21T00:47:18.044Z,1.85
2023-11-21T00:50:23.433Z,2.17
2023-11-21T00:53:25.195Z,1.63
2023-11-21T00:56:27.013Z,2.00
2023-11-21T00:59:28.758Z,1.75
2023-11-21T01:02:30.527Z,1.77
2023-11-21T01:05:33.626Z,2.13
2023-11-21T01:08:35.385Z,1.88
2023-11-21T01:11:37.373Z,1.95
2023-11-21T01:14:39.097Z,1.73
2023-11-21T01:17:41.069Z,2.15
2023-11-21T01:20:44.228Z,2.03
2023-11-21T01:23:45.924Z,1.65
2023-11-21T01:26:47.645Z,2.00
2023-11-21T01:29:49.619Z,2.00
2023-11-21T01:32:51.638Z,2.22
2023-11-21T01:35:54.909Z,1.77
2023-11-21T01:38:56.597Z,2.15
2023-11-21T01:41:58.344Z,2.40
2023-11-21T01:45:00.040Z,2.20
2023-11-21T01:48:02.113Z,2.75
2023-11-21T01:51:05.757Z,2.92
2023-11-21T01:54:15.434Z,2.13
2023-11-21T01:57:22.790Z,2.30
2023-11-21T02:00:24.642Z,2.53
2023-11-21T02:03:26.606Z,2.50
2023-11-21T02:06:31.215Z,2.67
2023-11-21T02:09:33.215Z,2.65
2023-11-21T02:12:34.991Z,2.08
2023-11-21T02:15:36.761Z,2.40
2023-11-21T02:18:38.624Z,2.20
2023-11-21T02:21:41.770Z,2.17
2023-11-21T02:24:44.855Z,1.63
2023-11-21T02:27:49.230Z,1.95
2023-11-21T02:30:50.969Z,2.35
2023-11-21T02:33:52.684Z,2.10
2023-11-21T02:36:54.516Z,1.90
2023-11-21T02:39:57.616Z,1.98
2023-11-21T02:42:59.345Z,1.70
2023-11-21T02:46:01.048Z,1.83
2023-11-21T02:49:03.499Z,1.85
2023-11-21T02:52:05.757Z,1.80
2023-11-21T02:55:09.585Z,1.85
2023-11-21T02:58:11.274Z,1.85
2023-11-21T03:01:13.014Z,1.45
2023-11-21T03:04:14.856Z,1.83
2023-11-21T03:07:16.741Z,1.45
2023-11-21T03:10:19.921Z,1.50
2023-11-21T03:13:21.631Z,1.60
2023-11-21T03:16:23.400Z,1.58
2023-11-21T03:19:25.293Z,1.40
2023-11-21T03:22:27.220Z,1.70
2023-11-21T03:25:30.408Z,1.52
2023-11-21T03:28:32.205Z,1.75
2023-11-21T03:31:36.484Z,1.55
2023-11-21T03:34:54.776Z,1.83
2023-11-21T03:37:56.667Z,1.95
2023-11-21T03:40:59.742Z,1.88
2023-11-21T03:44:01.456Z,2.53
2023-11-21T03:47:03.300Z,2.00
2023-11-21T03:50:05.959Z,2.00
2023-11-21T03:53:07.689Z,2.30
2023-11-21T03:56:11.035Z,1.95
2023-11-21T03:59:12.791Z,1.60
2023-11-21T04:02:14.533Z,1.88
2023-11-21T04:05:16.300Z,1.80
2023-11-21T04:08:18.065Z,1.40
2023-11-21T04:11:21.218Z,1.90
2023-11-21T04:14:23.812Z,1.70
2023-11-21T04:17:25.643Z,1.98
2023-11-21T04:20:27.499Z,1.63
2023-11-21T04:23:30.632Z,1.50
2023-11-21T04:26:33.909Z,1.38
2023-11-21T04:29:35.606Z,1.63
2023-11-21T04:32:40.304Z,1.45
2023-11-21T04:35:42.059Z,1.45
2023-11-21T04:38:43.987Z,1.70
2023-11-21T04:41:47.121Z,1.67
2023-11-21T04:44:49.158Z,1.45
2023-11-21T04:47:50.891Z,1.88
2023-11-21T04:50:52.693Z,1.60
2023-11-21T04:53:54.497Z,2.00
2023-11-21T04:56:57.712Z,1.70
2023-11-21T04:59:59.737Z,2.17
2023-11-21T05:03:01.582Z,1.55
2023-11-21T05:06:03.644Z,1.67
2023-11-21T05:09:05.489Z,1.65
2023-11-21T05:12:09.091Z,1.35
2023-11-21T05:15:14.665Z,1.10
2023-11-21T05:18:16.425Z,1.20
2023-11-21T05:21:18.281Z,1.40
2023-11-21T05:24:19.983Z,1.70
2023-11-21T05:27:23.083Z,1.83
2023-11-21T05:30:24.850Z,1.20
2023-11-21T05:33:26.572Z,1.63
2023-11-21T05:36:28.247Z,1.50
2023-11-21T05:39:30.119Z,1.98
2023-11-21T05:42:33.205Z,1.85
2023-11-21T05:45:34.921Z,1.38
2023-11-21T05:48:36.650Z,1.65
2023-11-21T05:51:38.414Z,1.40
2023-11-21T05:54:40.117Z,1.45
2023-11-21T05:57:44.929Z,1.38
2023-11-21T06:00:46.790Z,1.90
2023-11-21T06:03:48.582Z,1.50
2023-11-21T06:06:50.500Z,1.25
2023-11-21T06:09:52.212Z,1.60
2023-11-21T06:12:55.373Z,1.27
2023-11-21T06:15:57.090Z,1.20
2023-11-21T06:18:58.823Z,1.35
2023-11-21T06:22:00.482Z,1.83
2023-11-21T06:25:02.200Z,1.48
2023-11-21T06:28:05.479Z,1.15
2023-11-21T06:31:10.116Z,1.20
2023-11-21T06:34:11.963Z,1.33
2023-11-21T06:37:13.685Z,1.38
2023-11-21T06:40:16.161Z,1.33
2023-11-21T06:43:19.293Z,1.17
2023-11-21T06:46:21.271Z,1.38
2023-11-21T06:49:23.132Z,1.95
2023-11-21T06:52:24.854Z,1.52
2023-11-21T06:55:26.624Z,1.20
2023-11-21T06:58:29.792Z,1.15
2023-11-21T07:01:31.570Z,1.60
2023-11-21T07:04:33.371Z,1.30
2023-11-21T07:07:35.244Z,1.50
2023-11-21T07:10:37.204Z,1.67
2023-11-21T07:13:40.334Z,1.67
2023-11-21T07:16:42.097Z,1.70
2023-11-21T07:19:43.890Z,1.98
2023-11-21T07:22:45.683Z,1.50
2023-11-21T07:25:47.742Z,1.20
2023-11-21T07:28:51.846Z,1.60
2023-11-21T07:31:53.793Z,1.30
2023-11-21T07:34:55.548Z,1.27
2023-11-21T07:37:57.485Z,1.17
2023-11-21T07:40:59.255Z,1.20
2023-11-21T07:44:02.428Z,1.55
2023-11-21T07:47:04.574Z,1.85
2023-11-21T07:50:09.862Z,1.60
2023-11-21T07:53:11.605Z,1.80
2023-11-21T07:56:13.316Z,1.70
2023-11-21T07:59:16.420Z,1.35
2023-11-21T08:02:18.115Z,1.80
2023-11-21T08:05:25.365Z,1.63
2023-11-21T08:08:34.330Z,1.25
2023-11-21T08:11:36.034Z,1.48
2023-11-21T08:14:39.130Z,1.98
2023-11-21T08:17:40.974Z,1.65
2023-11-21T08:20:42.953Z,1.55
2023-11-21T08:23:44.735Z,1.60
2023-11-21T08:26:46.456Z,1.27
2023-11-21T08:29:49.665Z,1.10
2023-11-21T08:32:51.453Z,1.48
2023-11-21T08:35:53.407Z,1.17
2023-11-21T08:38:55.296Z,1.48
2023-11-21T08:41:57.562Z,1.70
2023-11-21T08:45:00.699Z,1.75
2023-11-21T08:48:02.707Z,2.13
2023-11-21T08:51:05.230Z,2.33
2023-11-21T08:54:09.650Z,2.40
2023-11-21T08:57:11.390Z,2.45
2023-11-21T09:00:15.058Z,2.25
2023-11-21T09:03:16.888Z,2.53
2023-11-21T09:06:18.740Z,2.90
2023-11-21T09:09:20.501Z,3.17
2023-11-21T09:12:22.271Z,2.90
2023-11-21T09:15:25.741Z,2.42
2023-11-21T09:18:30.075Z,3.28
2023-11-21T09:21:31.896Z,2.95
2023-11-21T09:24:33.653Z,2.80
2023-11-21T09:27:35.464Z,3.25
2023-11-21T09:30:38.729Z,3.20
2023-11-21T09:33:40.493Z,2.30
2023-11-21T09:36:42.287Z,1.92
2023-11-21T09:39:44.017Z,2.28
2023-11-21T09:42:56.329Z,2.33
2023-11-21T09:46:02.807Z,2.35
2023-11-21T09:49:05.511Z,2.63
2023-11-21T09:52:13.133Z,2.03
2023-11-21T09:55:16.950Z,2.53
2023-11-21T09:58:19.149Z,1.98
2023-11-21T10:01:27.631Z,2.28
2023-11-21T10:04:29.753Z,1.33
2023-11-21T10:07:35.229Z,2.10
2023-11-21T10:10:37.618Z,2.03
2023-11-21T10:13:40.248Z,2.10
2023-11-21T10:16:45.400Z,2.53
2023-11-21T10:19:48.250Z,2.35
2023-11-21T10:22:50.147Z,2.25
2023-11-21T10:25:52.157Z,2.22
2023-11-21T10:28:57.539Z,1.90
2023-11-21T10:32:00.713Z,1.92
2023-11-21T10:35:05.270Z,2.42
2023-11-21T10:38:07.161Z,2.47
2023-11-21T10:41:12.402Z,2.40
2023-11-21T10:44:15.338Z,2.33
2023-11-21T10:47:18.736Z,2.30
2023-11-21T10:50:20.654Z,2.17
2023-11-21T10:53:22.511Z,1.90
2023-11-21T10:56:26.603Z,2.40
2023-11-21T10:59:30.793Z,2.22
2023-11-21T11:02:34.523Z,2.20
2023-11-21T11:05:37.025Z,1.88
2023-11-21T11:08:39.391Z,1.70
2023-11-21T11:11:41.210Z,1.60
2023-11-21T11:14:43.257Z,1.77
2023-11-21T11:17:46.473Z,1.92
2023-11-21T11:20:52.036Z,1.70
2023-11-21T11:24:13.149Z,1.48
2023-11-21T11:27:25.672Z,1.70
2023-11-21T11:30:40.576Z,1.67
2023-11-21T11:33:49.756Z,2.08
2023-11-21T11:37:01.120Z,1.35
2023-11-21T11:40:07.226Z,1.67
2023-11-21T11:43:09.174Z,1.20
2023-11-21T11:46:11.765Z,1.10
2023-11-21T11:49:28.287Z,1.30
2023-11-21T11:52:37.934Z,1.20
2023-11-21T11:55:39.833Z,1.13
2023-11-21T11:58:43.121Z,0.98
2023-11-21T12:01:47.963Z,1.50
2023-11-21T12:04:56.818Z,1.60
2023-11-21T12:08:00.601Z,1.80
2023-11-21T12:11:07.572Z,1.40
2023-11-21T12:14:09.413Z,2.10
2023-11-21T12:17:11.211Z,1.00
2023-11-21T12:20:14.937Z,1.27
2023-11-21T12:23:16.710Z,1.27
2023-11-21T12:26:18.436Z,0.93
2023-11-21T12:29:20.236Z,1.02
2023-11-21T12:32:22.527Z,1.00
2023-11-21T12:35:27.278Z,0.93
2023-11-21T12:38:35.065Z,0.93
2023-11-21T12:41:36.808Z,1.10
2023-11-21T12:44:40.107Z,1.17
2023-11-21T12:47:43.244Z,1.10
2023-11-21T12:50:46.414Z,1.30
2023-11-21T12:53:48.282Z,1.60
2023-11-21T12:56:50.994Z,1.60
2023-11-21T12:59:52.693Z,2.03
2023-11-21T13:02:55.505Z,2.00
2023-11-21T13:05:58.762Z,1.75
2023-11-21T13:09:01.731Z,2.40
2023-11-21T13:12:03.674Z,2.22
2023-11-21T13:15:07.822Z,1.80
2023-11-21T13:18:09.590Z,1.83
2023-11-21T13:21:12.858Z,2.17
2023-11-21T13:24:14.579Z,2.28
2023-11-21T13:27:16.342Z,2.08
2023-11-21T13:30:18.354Z,1.63
2023-11-21T13:33:20.672Z,1.50
2023-11-21T13:36:24.360Z,1.92
2023-11-21T13:39:26.119Z,1.75
2023-11-21T13:42:27.821Z,1.80
2023-11-21T13:45:31.990Z,1.95
2023-11-21T13:48:34.913Z,1.75
2023-11-21T13:51:38.169Z,1.58
2023-11-21T13:54:39.909Z,2.00
2023-11-21T13:57:41.604Z,2.63
2023-11-21T14:00:43.352Z,3.00
2023-11-21T14:03:45.254Z,2.10
2023-11-21T14:06:50.337Z,4.85
2023-11-21T14:09:52.303Z,7.78
2023-11-21T14:12:54.002Z,13.68
2023-11-21T14:15:55.745Z,16.52
2023-11-21T14:18:57.461Z,5.25
2023-11-21T14:22:00.823Z,3.92
2023-11-21T14:25:02.575Z,3.47
2023-11-21T14:28:04.895Z,3.13
2023-11-21T14:31:06.794Z,3.40
2023-11-21T14:34:08.863Z,4.82
2023-11-21T14:37:11.974Z,3.42
2023-11-21T14:40:13.707Z,3.72
2023-11-21T14:43:15.391Z,3.20
2023-11-21T14:46:17.130Z,4.20
2023-11-21T14:49:18.880Z,4.18
2023-11-21T14:52:25.187Z,3.67
2023-11-21T14:55:26.986Z,3.70
2023-11-21T14:58:28.786Z,3.35
2023-11-21T15:01:33.003Z,3.40
2023-11-21T15:04:37.840Z,3.17
2023-11-21T15:07:42.151Z,3.40
2023-11-21T15:10:43.974Z,3.85
2023-11-21T15:13:45.775Z,3.85
2023-11-21T15:16:47.789Z,3.55
2023-11-21T15:19:49.738Z,3.80
2023-11-21T15:22:52.907Z,3.38
2023-11-21T15:25:54.801Z,2.72
2023-11-21T15:28:56.747Z,2.45
2023-11-21T15:31:58.593Z,2.33
2023-11-21T15:35:00.483Z,2.80
2023-11-21T15:38:03.675Z,3.05
2023-11-21T15:41:05.743Z,2.80
2023-11-21T15:44:10.056Z,2.40
2023-11-21T15:47:11.889Z,3.20
2023-11-21T15:50:13.759Z,2.97
2023-11-21T15:53:16.895Z,3.85
2023-11-21T15:56:20.838Z,3.83
2023-11-21T15:59:22.662Z,3.75
2023-11-21T16:02:24.423Z,3.15
2023-11-21T16:05:26.273Z,3.65
2023-11-21T16:08:29.371Z,7.40
2023-11-21T16:11:31.087Z,53.15
2023-11-21T16:14:35.293Z,21.02
2023-11-21T16:17:37.411Z,8.05
2023-11-21T16:20:39.307Z,3.75
2023-11-21T16:23:42.408Z,2.83
2023-11-21T16:26:44.198Z,2.80
2023-11-21T16:29:45.912Z,3.08
2023-11-21T16:32:47.688Z,3.10
2023-11-21T16:35:49.392Z,3.22
2023-11-21T16:38:52.528Z,3.25
2023-11-21T16:41:54.232Z,4.40
2023-11-21T16:44:55.932Z,3.78
2023-11-21T16:47:57.711Z,5.20
2023-11-21T16:50:59.490Z,15.95
2023-11-21T16:54:02.592Z,7.13
2023-11-21T16:57:04.853Z,10.15
2023-11-21T17:00:07.491Z,10.05
2023-11-21T17:03:09.355Z,10.70
2023-11-21T17:06:11.175Z,8.05
2023-11-21T17:09:14.346Z,16.08
2023-11-21T17:12:16.086Z,9.48
2023-11-21T17:15:17.857Z,42.55
2023-11-21T17:18:19.618Z,16.40
2023-11-21T17:21:26.369Z,15.50
2023-11-21T17:24:33.205Z,10.40
2023-11-21T17:27:34.961Z,5.75
2023-11-21T17:30:36.685Z,16.92
2023-11-21T17:33:39.425Z,11.68
2023-11-21T17:36:42.402Z,12.38
2023-11-21T17:39:45.582Z,11.00
2023-11-21T17:42:47.314Z,7.57
2023-11-21T17:45:49.112Z,6.40
2023-11-21T17:48:51.471Z,6.07
2023-11-21T17:51:53.230Z,6.57
2023-11-21T17:54:56.329Z,6.50
2023-11-21T17:57:58.282Z,6.90
2023-11-21T18:01:00.119Z,8.07
2023-11-21T18:04:02.213Z,7.50
2023-11-21T18:07:04.358Z,8.35
2023-11-21T18:10:09.067Z,8.55
2023-11-21T18:13:10.790Z,8.70
2023-11-21T18:16:12.496Z,9.00
2023-11-21T18:19:14.298Z,9.68
2023-11-21T18:22:15.996Z,9.60
2023-11-21T18:25:19.310Z,9.20
2023-11-21T18:28:21.126Z,8.18
2023-11-21T18:31:22.867Z,8.82
2023-11-21T18:34:24.605Z,9.60
2023-11-21T18:37:26.331Z,8.85
2023-11-21T18:40:29.551Z,9.07
2023-11-21T18:43:31.279Z,9.73
2023-11-21T18:46:37.108Z,9.55
2023-11-21T18:49:39.093Z,9.90
2023-11-21T18:52:40.842Z,10.48
2023-11-21T18:55:44.023Z,10.23
2023-11-21T18:58:45.803Z,10.52
2023-11-21T19:01:47.802Z,10.07
2023-11-21T19:04:49.740Z,11.85
2023-11-21T19:07:51.735Z,9.82
2023-11-21T19:10:56.085Z,9.90
2023-11-21T19:13:57.901Z,10.40
2023-11-21T19:17:00.263Z,11.30
2023-11-21T19:20:02.829Z,9.93
2023-11-21T19:23:04.611Z,10.07
2023-11-21T19:26:07.761Z,8.60
2023-11-21T19:29:09.685Z,8.70
2023-11-21T19:32:11.943Z,8.77
2023-11-21T19:35:14.106Z,9.27
2023-11-21T19:38:16.307Z,8.30
2023-11-21T19:41:21.266Z,8.30
2023-11-21T19:44:23.660Z,9.15
2023-11-21T19:47:25.710Z,8.27
2023-11-21T19:50:27.583Z,8.50
2023-11-21T19:53:29.341Z,8.68
2023-11-21T19:56:32.470Z,8.50
2023-11-21T19:59:34.890Z,7.95
2023-11-21T20:02:36.846Z,8.20
2023-11-21T20:05:38.949Z,8.45
2023-11-21T20:08:40.703Z,9.32
2023-11-21T20:11:43.893Z,8.23
2023-11-21T20:14:45.739Z,8.30
2023-11-21T20:17:49.242Z,8.20
2023-11-21T20:20:51.815Z,8.23
2023-11-21T20:23:53.654Z,8.60
2023-11-21T20:26:57.601Z,8.07
2023-11-21T20:29:59.354Z,8.23
2023-11-21T20:33:01.228Z,8.43
2023-11-21T20:36:03.215Z,8.93
2023-11-21T20:39:05.046Z,9.00
2023-11-21T20:42:08.449Z,9.13
2023-11-21T20:45:10.779Z,9.20
2023-11-21T20:48:12.849Z,8.00
2023-11-21T20:51:14.762Z,8.15
2023-11-21T20:54:16.570Z,8.02
2023-11-21T20:57:19.698Z,7.97
2023-11-21T21:00:21.639Z,7.13
2023-11-21T21:03:23.570Z,7.95
2023-11-21T21:06:25.324Z,8.32
2023-11-21T21:09:27.135Z,7.95
2023-11-21T21:12:30.195Z,8.32
2023-11-21T21:15:31.989Z,8.70
2023-11-21T21:18:33.807Z,8.77
2023-11-21T21:21:35.583Z,9.02
2023-11-21T21:24:37.351Z,8.77
2023-11-21T21:27:40.613Z,9.15
2023-11-21T21:30:42.478Z,9.43
2023-11-21T21:33:44.954Z,8.93
2023-11-21T21:36:46.735Z,9.60
2023-11-21T21:39:48.469Z,9.52
2023-11-21T21:42:51.535Z,9.48
2023-11-21T21:45:55.623Z,9.73
2023-11-21T21:48:57.338Z,11.20
2023-11-21T21:52:00.187Z,10.45
2023-11-21T21:55:02.009Z,10.63
2023-11-21T21:58:05.160Z,11.43
2023-11-21T22:01:06.895Z,10.77
2023-11-21T22:04:08.905Z,10.90
2023-11-21T22:07:10.733Z,12.48
2023-11-21T22:10:12.426Z,12.60
2023-11-21T22:13:15.553Z,12.10
2023-11-21T22:16:17.354Z,12.48
2023-11-21T22:19:19.195Z,13.65
2023-11-21T22:22:20.911Z,12.57
2023-11-21T22:25:23.133Z,11.90
2023-11-21T22:28:26.215Z,11.82
2023-11-21T22:31:27.984Z,11.52
2023-11-21T22:34:29.746Z,12.25
2023-11-21T22:37:31.505Z,13.18
2023-11-21T22:40:33.253Z,12.27
2023-11-21T22:43:36.338Z,12.05
2023-11-21T22:46:42.284Z,12.25
2023-11-21T22:49:44.029Z,11.88
2023-11-21T22:52:45.810Z,12.55
2023-11-21T22:55:47.522Z,12.10
2023-11-21T22:58:50.783Z,12.20
2023-11-21T23:01:52.616Z,11.68
2023-11-21T23:04:54.490Z,12.32
2023-11-21T23:07:56.279Z,11.38
2023-11-21T23:10:58.002Z,11.55
2023-11-21T23:14:01.173Z,11.77
2023-11-21T23:17:03.030Z,11.57
2023-11-21T23:20:06.102Z,13.15
2023-11-21T23:23:07.873Z,12.23
2023-11-21T23:26:09.681Z,11.82
2023-11-21T23:29:12.833Z,12.20
2023-11-21T23:32:15.425Z,12.00
2023-11-21T23:35:18.303Z,11.73
2023-11-21T23:38:20.136Z,11.80
2023-11-21T23:41:21.973Z,10.73
2023-11-21T23:44:25.240Z,10.32
2023-11-21T23:47:27.121Z,11.70
2023-11-21T23:50:30.915Z,11.25
2023-11-21T23:53:32.766Z,11.05
2023-11-21T23:56:34.554Z,10.27
2023-11-21T23:59:37.626Z,9.93
